Home > Products > Valid Products > TAF

000
FTUS41 KCTP 181359 AAA
TAFBFD
TAF AMD
KBFD 181359Z 1814/1912 15007KT P6SM SKC
     FM181500 19009G14KT P6SM SCT050 BKN150
     FM181900 22009KT P6SM BKN050
     FM182300 28006KT P6SM BKN040=



000
FTUS41 KCTP 181359 AAA
TAFJST
TAF AMD
KJST 181359Z 1814/1912 18006KT P6SM SKC
     FM181500 19009KT P6SM SCT050 BKN150
     FM181900 22006KT P6SM BKN050
     FM182300 28006KT P6SM BKN040=



000
FTUS41 KCTP 181359 AAA
TAFAOO
TAF AMD
KAOO 181359Z 1814/1912 VRB04KT P6SM FEW015
     FM181500 18006KT P6SM SCT050 BKN150
     FM181900 20006KT P6SM BKN050
     FM190100 28004KT P6SM BKN040=



000
FTUS41 KCTP 181359 AAA
TAFIPT
TAF AMD
KIPT 181359Z 1814/1912 VRB04KT P6SM SKC
     FM190200 00000KT P6SM BKN050=



000
FTUS41 KCTP 181359 AAA
TAFMDT
TAF AMD
KMDT 181359Z 1814/1912 10006KT P6SM OVC020
     FM190500 00000KT P6SM BKN050=



000
FTUS41 KCTP 181359 AAA
TAFUNV
TAF AMD
KUNV 181359Z 1814/1912 18004KT P6SM BKN200
     FM181500 18006KT P6SM SCT040 BKN150
     FM181900 20006KT P6SM BKN050
     FM190100 28004KT P6SM BKN040=



000
FTUS41 KCTP 181138
TAFAOO
TAF
KAOO 181138Z 1812/1912 18004KT P6SM BKN200
     FM181500 18006KT P6SM SCT050 BKN150
     FM181900 20006KT P6SM BKN050
     FM190100 28004KT P6SM BKN040=



000
FTUS41 KCTP 181138
TAFIPT
TAF
KIPT 181138Z 1812/1912 09004KT P6SM SCT030 SCT200
     FM181400 14006KT P6SM SCT040
     FM190200 00000KT P6SM BKN050=



000
FTUS41 KCTP 181138
TAFBFD
TAF
KBFD 181138Z 1812/1912 15008KT P6SM BKN250
     FM181500 19009G14KT P6SM SCT050 BKN150
     FM181900 22009KT P6SM BKN050
     FM182300 28006KT P6SM BKN040=



000
FTUS41 KCTP 181138
TAFUNV
TAF
KUNV 181138Z 1812/1912 18004KT P6SM BKN200
     FM181500 18006KT P6SM SCT040 BKN150
     FM181900 20006KT P6SM BKN050
     FM190100 28004KT P6SM BKN040=



000
FTUS41 KCTP 181138
TAFJST
TAF
KJST 181138Z 1812/1912 18006KT P6SM SCT040 BKN200
     FM181500 19009KT P6SM SCT050 BKN150
     FM181900 22006KT P6SM BKN050
     FM182300 28006KT P6SM BKN040=



000
FTUS41 KCTP 181138
TAFMDT
TAF
KMDT 181138Z 1812/1912 13004KT P6SM BKN020
     FM181400 15005KT P6SM SCT040
     FM190500 00000KT P6SM BKN050=



000
FTUS41 KCTP 180954 AAB
TAFIPT
TAF AMD
KIPT 180954Z 1810/1906 07006KT P6SM BKN030
     FM181130 09004KT P6SM SCT030
     FM181300 14006KT P6SM SCT050
     FM190000 21004KT P6SM SKC=



000
FTUS41 KCTP 180928 AAA
TAFBFD
TAF AMD
KBFD 180928Z 1809/1906 15008KT P6SM SKC
     FM181500 19009G14KT P6SM BKN050
     FM182300 25006KT P6SM BKN050=



000
FTUS41 KCTP 180928 AAA
TAFIPT
TAF AMD
KIPT 180928Z 1809/1906 09004KT P6SM SCT035
     FM181300 14006KT P6SM SCT050
     FM190000 21004KT P6SM SKC=



000
FTUS41 KCTP 180928 AAA
TAFJST
TAF AMD
KJST 180928Z 1809/1906 18006KT P6SM SCT040
     FM181200 21009G15KT P6SM SCT050
     FM190000 23006KT P6SM SKC=



000
FTUS41 KCTP 180928 AAB
TAFMDT
TAF AMD
KMDT 180928Z 1809/1906 12004KT P6SM BKN030
     FM181300 15005KT P6SM SCT040=



000
FTUS41 KCTP 180928 AAA
TAFAOO
TAF AMD
KAOO 180928Z 1809/1906 18004KT P6SM FEW030
     FM181300 18006KT P6SM SCT050
     FM190000 21004KT P6SM SKC=



000
FTUS41 KCTP 180928 AAA
TAFUNV
TAF AMD
KUNV 180928Z 1809/1906 15003KT P6SM FEW030
     FM181300 18006KT P6SM SCT050
     FM190000 21004KT P6SM SKC=



000
FTUS41 KCTP 180805 AAA
TAFMDT
TAF AMD
KMDT 180805Z 1808/1906 15007KT P6SM SCT035
     FM180845 12004KT P6SM BKN025
     FM181300 15005KT P6SM SCT040=



000
FTUS41 KCTP 180546
TAFIPT
TAF
KIPT 180546Z 1806/1906 08008KT P6SM BKN035
     FM180800 09004KT P6SM SCT035
     FM181300 14006KT P6SM SCT050
     FM190000 21004KT P6SM SKC=



000
FTUS41 KCTP 180546
TAFUNV
TAF
KUNV 180546Z 1806/1906 15003KT P6SM FEW030
     FM181300 18006KT P6SM SCT050
     FM190000 21004KT P6SM SKC=



000
FTUS41 KCTP 180546
TAFBFD
TAF
KBFD 180546Z 1806/1906 15008KT P6SM SKC
     FM181500 19009G14KT P6SM BKN050
     FM182300 25006KT P6SM BKN050=



000
FTUS41 KCTP 180546
TAFJST
TAF
KJST 180546Z 1806/1906 14010KT P6SM SKC
     FM180800 16010G17KT P6SM SCT040
     FM181200 21009G15KT P6SM SCT050
     FM190000 23006KT P6SM SKC=



000
FTUS41 KCTP 180546
TAFMDT
TAF
KMDT 180546Z 1806/1906 15007KT P6SM SCT035
     FM180800 12004KT P6SM BKN025
     FM181300 15005KT P6SM SCT040=



000
FTUS41 KCTP 180546
TAFAOO
TAF
KAOO 180546Z 1806/1906 15006KT P6SM SKC
     FM181000 15003KT P6SM SCT030
     FM181300 18006KT P6SM SCT050
     FM190000 21004KT P6SM SKC=



000
FTUS41 KCTP 180325 AAA
TAFAOO
TAF AMD
KAOO 180325Z 1803/1824 13009KT P6SM SKC
     FM180900 15003KT P6SM BKN025
     FM181300 VRB05KT P6SM SKC=



000
FTUS41 KCTP 180325 AAA
TAFUNV
TAF AMD
KUNV 180325Z 1803/1824 16004KT P6SM SKC
     FM181200 13003KT P6SM BKN035
     FM181400 VRB05KT P6SM SKC=



000
FTUS41 KCTP 180325 AAA
TAFJST
TAF AMD
KJST 180325Z 1803/1824 14008G17KT P6SM SKC
     FM180800 15009KT P6SM BKN025
     FM181200 22008G16KT P6SM SCT050
     FM182330 22004KT P6SM SKC=



000
FTUS41 KCTP 180325 AAA
TAFIPT
TAF AMD
KIPT 180325Z 1803/1824 09009G20KT P6SM SKC
     FM180700 12003KT P6SM BKN040
     FM181200 VRB05KT P6SM SKC=



000
FTUS41 KCTP 180325 AAA
TAFMDT
TAF AMD
KMDT 180325Z 1803/1824 13012KT P6SM BKN030
     FM180700 12003KT P6SM OVC030
     FM181000 12003KT P6SM BKN030
     FM181200 VRB05KT P6SM SKC=



000
FTUS41 KCTP 180325 AAA
TAFBFD
TAF AMD
KBFD 180325Z 1803/1824 15006KT P6SM SKC
     FM181500 19009G15KT P6SM SCT050
     FM182300 25005KT P6SM BKN050=



000
FTUS41 KCTP 172338
TAFAOO
TAF
KAOO 172338Z 1800/1824 16010G18KT P6SM SKC
     FM180900 15003KT P6SM BKN025
     FM181300 VRB05KT P6SM SKC=



000
FTUS41 KCTP 172338
TAFMDT
TAF
KMDT 172338Z 1800/1824 13010KT P6SM SCT250
     FM180700 12003KT P6SM BKN040
     FM181000 12003KT P6SM BKN030
     FM181200 VRB05KT P6SM SKC=



000
FTUS41 KCTP 172338
TAFIPT
TAF
KIPT 172338Z 1800/1824 VRB06G17KT P6SM SKC
     FM180700 12003KT P6SM BKN040
     FM181200 VRB05KT P6SM SKC=



000
FTUS41 KCTP 172338
TAFJST
TAF
KJST 172338Z 1800/1824 13011G17KT P6SM SKC
     FM180800 15009KT P6SM BKN025
     FM181200 22008G16KT P6SM SCT050
     FM182330 22004KT P6SM SKC=



000
FTUS41 KCTP 172338
TAFBFD
TAF
KBFD 172338Z 1800/1824 17011KT P6SM SKC
     FM180600 15006KT P6SM SCT015 BKN025
     FM181500 19009G15KT P6SM SCT050
     FM182300 25005KT P6SM BKN050=



000
FTUS41 KCTP 172338
TAFUNV
TAF
KUNV 172338Z 1800/1824 14009G15KT P6SM BKN220
     FM181200 13003KT P6SM BKN035
     FM181400 VRB05KT P6SM SKC=



000
FTUS41 KCTP 172130 AAB
TAFIPT
TAF AMD
KIPT 172130Z 1722/1818 15010G19KT P6SM BKN250
     FM172230 12006KT P6SM SCT045 SCT250
     FM180700 12003KT P6SM BKN040
     FM181200 VRB05KT P6SM SKC=



000
FTUS41 KCTP 172130 AAA
TAFBFD
TAF AMD
KBFD 172130Z 1722/1818 15011G19KT P6SM SCT220
     FM172230 15008KT P6SM SCT250
     FM180600 15006KT P6SM BKN050
     FM181500 19009G15KT P6SM OVC050=



000
FTUS41 KCTP 172130 AAA
TAFAOO
TAF AMD
KAOO 172130Z 1722/1818 16009G15KT P6SM BKN220
     FM172230 15006KT P6SM SCT040 SCT250
     FM180700 15003KT P6SM BKN035
     FM181200 VRB05KT P6SM SKC=



000
FTUS41 KCTP 172130 AAA
TAFUNV
TAF AMD
KUNV 172130Z 1722/1818 14009G15KT P6SM SCT150 BKN220
     FM172230 15006KT P6SM FEW040 SCT250
     FM180700 13003KT P6SM BKN035
     FM181200 VRB05KT P6SM SKC=



000
FTUS41 KCTP 172130 AAA
TAFMDT
TAF AMD
KMDT 172130Z 1722/1818 14008G15KT P6SM SCT050 BKN250
     FM172230 12008KT P6SM BKN050 BKN250
     FM180700 12003KT P6SM BKN040
     FM181000 12003KT P6SM BKN030
     FM181200 VRB05KT P6SM SKC=



000
FTUS41 KCTP 172130 AAA
TAFJST
TAF AMD
KJST 172130Z 1722/1818 15012G19KT P6SM BKN220
     FM172230 15009KT P6SM SCT035 SCT250
     FM180800 15009KT P6SM BKN030
     FM181200 22008KT P6SM SCT050=



000
FTUS41 KCTP 171844 AAA
TAFIPT
TAF AMD
KIPT 171844Z 1719/1818 15010G19KT P6SM BKN250
     FM172230 12006KT P6SM SCT045 SCT250
     FM180700 12003KT P6SM BKN040=



000
FTUS41 KCTP 171728
TAFUNV
TAF
KUNV 171728Z 1718/1818 14009G15KT P6SM SCT150 BKN220
     FM172230 15006KT P6SM FEW040 SCT250
     FM180700 13003KT P6SM BKN035=



000
FTUS41 KCTP 171728
TAFMDT
TAF
KMDT 171728Z 1718/1818 14008G15KT P6SM SCT050 BKN250
     FM172230 12008KT P6SM BKN050 BKN250
     FM180700 12003KT P6SM BKN040
     FM181000 12003KT P6SM BKN030=



000
FTUS41 KCTP 171728
TAFBFD
TAF
KBFD 171728Z 1718/1818 15011G19KT P6SM SCT220
     FM172230 15008KT P6SM SCT250
     FM180600 15006KT P6SM BKN050
     FM181500 19009G15KT P6SM OVC050=



000
FTUS41 KCTP 171728
TAFJST
TAF
KJST 171728Z 1718/1818 15012G19KT P6SM BKN220
     FM172230 15009KT P6SM SCT035 SCT250
     FM180800 15009KT P6SM BKN030=



000
FTUS41 KCTP 171728
TAFAOO
TAF
KAOO 171728Z 1718/1818 16009G15KT P6SM BKN220
     FM172230 15006KT P6SM SCT040 SCT250
     FM180700 15003KT P6SM BKN035=



000
FTUS41 KCTP 171728
TAFIPT
TAF
KIPT 171728Z 1718/1818 12010G19KT P6SM BKN250
     FM172230 12006KT P6SM SCT045 SCT250
     FM180700 12003KT P6SM BKN040=



000
FTUS41 KCTP 171538 AAB
TAFJST
TAF AMD
KJST 171538Z 1716/1812 17014G23KT P6SM FEW035 BKN220
     FM172230 15009KT P6SM SCT250
     FM180800 15009KT P6SM BKN035=



000
FTUS41 KCTP 171538 AAB
TAFAOO
TAF AMD
KAOO 171538Z 1716/1812 17012G18KT P6SM FEW040 BKN220
     FM172230 15006KT P6SM SCT250
     FM180700 15003KT P6SM BKN035=



000
FTUS41 KCTP 171538 AAA
TAFUNV
TAF AMD
KUNV 171538Z 1716/1812 15010G16KT P6SM BKN220
     FM172230 15006KT P6SM SCT250
     FM180700 13003KT P6SM BKN035=



000
FTUS41 KCTP 171538 AAB
TAFBFD
TAF AMD
KBFD 171538Z 1716/1812 15011G19KT P6SM SCT220
     FM172230 15008KT P6SM SCT250
     FM180600 15006KT P6SM BKN050=



000
FTUS41 KCTP 171538 AAA
TAFMDT
TAF AMD
KMDT 171538Z 1716/1812 13010KT P6SM FEW040 BKN250
     FM171800 13010G17KT P6SM SCT040 BKN250
     FM172230 12008KT P6SM BKN040 BKN250
     FM180700 12003KT P6SM BKN035
     FM181000 12003KT P6SM BKN025=



000
FTUS41 KCTP 171538 AAB
TAFIPT
TAF AMD
KIPT 171538Z 1716/1812 12010G17KT P6SM FEW040 BKN250
     FM172230 12006KT P6SM SCT250
     FM180700 12003KT P6SM BKN040=



000
FTUS41 KCTP 171511 AAA
TAFIPT
TAF AMD
KIPT 171511Z 1715/1812 11007KT P6SM BKN250
     FM171800 12010G17KT P6SM FEW040 BKN250
     FM172230 12006KT P6SM SCT250
     FM180700 12003KT P6SM BKN040=



000
FTUS41 KCTP 171510 AAA
TAFAOO
TAF AMD
KAOO 171510Z 1715/1812 17011G17KT P6SM FEW040 BKN250
     FM172230 15006KT P6SM SCT250
     FM180700 15003KT P6SM BKN035=



000
FTUS41 KCTP 171401 AAA
TAFBFD
TAF AMD
KBFD 171401Z 1714/1812 15011G19KT P6SM SCT250
     FM172230 15008KT P6SM SCT250
     FM180600 15006KT P6SM BKN050=



000
FTUS41 KCTP 171401 AAA
TAFJST
TAF AMD
KJST 171401Z 1714/1812 15014G23KT P6SM FEW035 BKN250
     FM172230 15009KT P6SM SCT250
     FM180800 15009KT P6SM BKN035=



000
FTUS41 KCTP 171142
TAFBFD
TAF
KBFD 171142Z 1712/1812 14008KT P6SM SCT250
     FM171500 15011G19KT P6SM SCT250
     FM172230 15008KT P6SM SCT250
     FM180600 15006KT P6SM BKN050=



000
FTUS41 KCTP 171142
TAFUNV
TAF
KUNV 171142Z 1712/1812 13006KT P6SM SCT250
     FM171600 15010G17KT P6SM FEW040 BKN250
     FM172230 15006KT P6SM SCT250
     FM180700 13003KT P6SM BKN040=



000
FTUS41 KCTP 171142
TAFJST
TAF
KJST 171142Z 1712/1812 15011KT P6SM BKN250
     FM171500 15011G19KT P6SM FEW035 BKN250
     FM172230 15009KT P6SM SCT250
     FM180800 15009KT P6SM BKN035=



000
FTUS41 KCTP 171142
TAFIPT
TAF
KIPT 171142Z 1712/1812 10003KT P6SM SCT250
     FM171600 11008KT P6SM BKN250
     FM171800 12010G17KT P6SM FEW040 BKN250
     FM172230 12006KT P6SM SCT250
     FM180700 12003KT P6SM BKN040=



000
FTUS41 KCTP 171142
TAFAOO
TAF
KAOO 171142Z 1712/1812 13006KT P6SM SCT250
     FM171600 15010G17KT P6SM FEW040 BKN250
     FM172230 15006KT P6SM SCT250
     FM180700 15003KT P6SM BKN035=



000
FTUS41 KCTP 171142
TAFMDT
TAF
KMDT 171142Z 1712/1812 10003KT P6SM SCT250
     FM171600 10008KT P6SM BKN250
     FM171800 12010G17KT P6SM FEW045 BKN250
     FM172230 12008KT P6SM SCT250
     FM180700 12003KT P6SM BKN035
     FM181000 12003KT P6SM BKN025=



000
FTUS41 KCTP 171003 AAA
TAFAOO
TAF AMD
KAOO 171003Z 1710/1806 10006KT P6SM SCT220
     FM171600 15010G17KT P6SM FEW040 BKN220
     FM172230 15006KT P6SM SKC=



000
FTUS41 KCTP 171003 AAA
TAFIPT
TAF AMD
KIPT 171003Z 1710/1806 10003KT P6SM SCT220
     FM171600 11008KT P6SM BKN220
     FM171800 12010G17KT P6SM FEW040 BKN220
     FM172230 12006KT P6SM SKC=



000
FTUS41 KCTP 171003 AAA
TAFMDT
TAF AMD
KMDT 171003Z 1710/1806 08003KT P6SM SCT250
     FM171600 10008KT P6SM BKN250
     FM171800 12010G17KT P6SM FEW045 BKN250
     FM172230 12008KT P6SM SKC=



000
FTUS41 KCTP 171003 AAA
TAFBFD
TAF AMD
KBFD 171003Z 1710/1806 14008KT P6SM SCT200
     FM171500 15011G19KT P6SM SCT200
     FM172230 15008KT P6SM SKC=



000
FTUS41 KCTP 171003 AAA
TAFJST
TAF AMD
KJST 171003Z 1710/1806 15008KT P6SM BKN200
     FM171500 15011G19KT P6SM FEW035 BKN200
     FM172230 15008KT P6SM SKC=



000
FTUS41 KCTP 171003 AAA
TAFUNV
TAF AMD
KUNV 171003Z 1710/1806 10006KT P6SM SCT220
     FM171600 15010G17KT P6SM FEW040 BKN220
     FM172230 15006KT P6SM SKC=



000
FTUS41 KCTP 170541
TAFAOO
TAF
KAOO 170541Z 1706/1806 10006KT P6SM SCT220
     FM171600 15010G17KT P6SM FEW040 BKN220
     FM172230 15006KT P6SM SKC=



000
FTUS41 KCTP 170541
TAFUNV
TAF
KUNV 170541Z 1706/1806 10006KT P6SM SCT220
     FM171600 15010G17KT P6SM FEW040 BKN220
     FM172230 15006KT P6SM SKC=



000
FTUS41 KCTP 170541
TAFIPT
TAF
KIPT 170541Z 1706/1806 10003KT P6SM SCT220
     FM171600 11008KT P6SM BKN220
     FM171800 12010G17KT P6SM FEW040 BKN220
     FM172230 12006KT P6SM SKC=



000
FTUS41 KCTP 170541
TAFMDT
TAF
KMDT 170541Z 1706/1806 08005KT P6SM SCT250
     FM171600 10008KT P6SM BKN250
     FM171800 12010G17KT P6SM FEW045 BKN250
     FM172230 12008KT P6SM SKC=



000
FTUS41 KCTP 170541
TAFBFD
TAF
KBFD 170541Z 1706/1806 13006KT P6SM BKN200
     FM171300 14008KT P6SM SCT200
     FM171500 15011G19KT P6SM SCT200
     FM172230 15008KT P6SM SKC=



000
FTUS41 KCTP 170541
TAFJST
TAF
KJST 170541Z 1706/1806 11006KT P6SM SCT200
     FM170900 13008KT P6SM BKN200
     FM171500 15011G19KT P6SM FEW035 BKN200
     FM172230 15008KT P6SM SKC=



000
FTUS41 KCTP 170312 AAA
TAFBFD
TAF AMD
KBFD 170312Z 1703/1724 14003KT P6SM SKC
     FM170800 12006KT P6SM BKN180
     FM171600 15011G19KT P6SM SCT035 BKN180
     FM172300 15006KT P6SM SKC=



000
FTUS41 KCTP 170312 AAA
TAFJST
TAF AMD
KJST 170312Z 1703/1724 10005KT P6SM SKC
     FM170900 13008KT P6SM BKN200
     FM171600 15011G19KT P6SM SCT035 BKN200
     FM172300 15006KT P6SM SKC=



000
FTUS41 KCTP 170312 AAA
TAFAOO
TAF AMD
KAOO 170312Z 1703/1724 11006KT P6SM SKC
     FM170900 08006KT P6SM BKN200
     FM171600 15012G20KT P6SM FEW040 BKN220
     FM172300 15006KT P6SM SKC=



000
FTUS41 KCTP 170312 AAA
TAFUNV
TAF AMD
KUNV 170312Z 1703/1724 00000KT P6SM SKC
     FM170900 10006KT P6SM BKN200
     FM171600 15012G18KT P6SM SCT040 BKN220
     FM172300 15006KT P6SM SKC=



000
FTUS41 KCTP 170312 AAA
TAFIPT
TAF AMD
KIPT 170312Z 1703/1724 09005KT P6SM SKC
     FM170400 09004KT P6SM BKN220
     FM171600 13012G18KT P6SM FEW040 BKN220
     FM172300 14006KT P6SM SKC=



000
FTUS41 KCTP 170312 AAA
TAFMDT
TAF AMD
KMDT 170312Z 1703/1724 08004KT P6SM FEW250
     FM170400 07006KT P6SM BKN250
     FM171600 12010G16KT P6SM FEW045 SCT250
     FM172300 13004KT P6SM SKC=



000
FTUS41 KCTP 162344
TAFBFD
TAF
KBFD 162344Z 1700/1724 10006KT P6SM SKC
     FM170800 12006KT P6SM BKN180
     FM171600 15011G19KT P6SM SCT035 BKN180
     FM172300 15008KT P6SM SKC=



000
FTUS41 KCTP 162344
TAFMDT
TAF
KMDT 162344Z 1700/1724 VRB04KT P6SM SCT250
     FM170400 07006KT P6SM BKN250
     FM171600 12010G16KT P6SM FEW045 SCT250
     FM172300 13008KT P6SM SKC=



000
FTUS41 KCTP 162344
TAFJST
TAF
KJST 162344Z 1700/1724 00000KT P6SM SKC
     FM170200 13005KT P6SM BKN250
     FM170900 13008KT P6SM BKN200
     FM171600 15011G19KT P6SM SCT035 BKN200
     FM172300 15008KT P6SM SKC=



000
FTUS41 KCTP 162344
TAFIPT
TAF
KIPT 162344Z 1700/1724 00000KT P6SM SKC
     FM170400 09004KT P6SM BKN220
     FM171600 13012G18KT P6SM FEW040 BKN220
     FM172300 14008KT P6SM SKC=



000
FTUS41 KCTP 162344
TAFUNV
TAF
KUNV 162344Z 1700/1724 12003KT P6SM SCT250
     FM170900 10006KT P6SM BKN200
     FM171600 15012G18KT P6SM SCT040 BKN220
     FM172300 15008KT P6SM SKC=



000
FTUS41 KCTP 162344
TAFAOO
TAF
KAOO 162344Z 1700/1724 06003KT P6SM SKC
     FM170900 08006KT P6SM BKN200
     FM171600 15012G20KT P6SM FEW040 BKN220
     FM172300 15008KT P6SM SKC=



000
FTUS41 KCTP 162127 AAB
TAFAOO
TAF AMD
KAOO 162127Z 1621/1718 VRB06KT P6SM SKC
     FM170900 08006KT P6SM BKN200
     FM171600 15012G20KT P6SM FEW040 BKN220=



000
FTUS41 KCTP 162127 AAA
TAFUNV
TAF AMD
KUNV 162127Z 1621/1718 12006KT P6SM SCT250
     FM162200 08005KT P6SM BKN250
     FM170900 10006KT P6SM BKN200
     FM171600 15012G18KT P6SM SCT040 BKN220=



000
FTUS41 KCTP 162127 AAA
TAFMDT
TAF AMD
KMDT 162127Z 1621/1718 35008KT P6SM FEW250
     FM162300 04006KT P6SM BKN250
     FM170400 07006KT P6SM BKN250
     FM171600 12010G16KT P6SM FEW045 SCT250=



000
FTUS41 KCTP 162127 AAA
TAFBFD
TAF AMD
KBFD 162127Z 1621/1718 00000KT P6SM SKC
     FM162300 05005KT P6SM BKN250
     FM170800 12006KT P6SM BKN180
     FM171600 15011G19KT P6SM SCT035 BKN180=



000
FTUS41 KCTP 162127 AAA
TAFIPT
TAF AMD
KIPT 162127Z 1621/1718 04004KT P6SM SKC
     FM162200 04006KT P6SM BKN250
     FM170400 09004KT P6SM BKN220
     FM171600 13012G18KT P6SM FEW040 BKN220=



000
FTUS41 KCTP 162127 AAA
TAFJST
TAF AMD
KJST 162127Z 1621/1718 VRB04KT P6SM SKC
     FM170200 13005KT P6SM BKN250
     FM170900 13008KT P6SM BKN200
     FM171600 15011G19KT P6SM SCT035 BKN200=



000
FTUS41 KCTP 161918 AAA
TAFAOO
TAF AMD
KAOO 161918Z 1619/1718 04004KT P6SM SCT250
     FM170900 08006KT P6SM BKN200
     FM171600 15012G20KT P6SM FEW040 BKN220=



000
FTUS41 KCTP 161735
TAFMDT
TAF
KMDT 161735Z 1618/1718 01008G15KT P6SM SCT250
     FM162300 04006KT P6SM BKN250
     FM170400 07006KT P6SM BKN250
     FM171600 12010G16KT P6SM FEW045 SCT250=



000
FTUS41 KCTP 161735
TAFIPT
TAF
KIPT 161735Z 1618/1718 35009G16KT P6SM SKC
     FM162200 04006KT P6SM BKN250
     FM170400 09004KT P6SM BKN220
     FM171600 13012G18KT P6SM FEW040 BKN220=



000
FTUS41 KCTP 161735
TAFUNV
TAF
KUNV 161735Z 1618/1718 06006KT P6SM SCT250
     FM162200 08005KT P6SM BKN250
     FM170900 10006KT P6SM BKN200
     FM171600 15012G18KT P6SM SCT040 BKN220=



000
FTUS41 KCTP 161735
TAFBFD
TAF
KBFD 161735Z 1618/1718 VRB04KT P6SM SCT250
     FM162300 05005KT P6SM BKN250
     FM170800 12006KT P6SM BKN180
     FM171600 15011G19KT P6SM SCT035 BKN180=



000
FTUS41 KCTP 161735
TAFJST
TAF
KJST 161735Z 1618/1718 33008G14KT P6SM SCT250
     FM162100 08006KT P6SM BKN250
     FM170200 13005KT P6SM BKN250
     FM170900 13008KT P6SM BKN200
     FM171600 15011G19KT P6SM SCT035 BKN200=



000
FTUS41 KCTP 161735
TAFAOO
TAF
KAOO 161735Z 1618/1718 02008G15KT P6SM SCT250
     FM162100 06005KT P6SM BKN250
     FM170900 08006KT P6SM BKN200
     FM171600 15012G20KT P6SM FEW040 BKN220=



000
FTUS41 KCTP 161720 AAD
TAFUNV
TAF AMD
KUNV 161720Z 1617/1712 04007KT P6SM SCT250
     FM162200 07005KT P6SM BKN250
     FM170900 10006KT P6SM BKN200=



000
FTUS41 KCTP 161719 AAC
TAFAOO
TAF AMD
KAOO 161719Z 1617/1712 02008G15KT P6SM SCT250
     FM162100 06005KT P6SM BKN250
     FM170900 08006KT P6SM BKN200=



000
FTUS41 KCTP 161719 AAB
TAFMDT
TAF AMD
KMDT 161719Z 1617/1712 01009G15KT P6SM SCT250
     FM162300 04006KT P6SM BKN250
     FM170400 07006KT P6SM BKN250=



000
FTUS41 KCTP 161718 AAC
TAFBFD
TAF AMD
KBFD 161718Z 1617/1712 VRB05KT P6SM SCT030 SCT250
     FM162300 VRB03KT P6SM BKN250
     FM170800 12006KT P6SM BKN180=



000
FTUS41 KCTP 161644 AAC
TAFUNV
TAF AMD
KUNV 161644Z 1617/1712 01008G14KT P6SM SCT250
     FM162200 05005KT P6SM BKN250
     FM170900 10006KT P6SM BKN200=



000
FTUS41 KCTP 161540 AAA
TAFMDT
TAF AMD
KMDT 161540Z 1616/1712 35012G21KT P6SM SCT250
     FM162300 04006KT P6SM BKN250
     FM170400 07006KT P6SM BKN250=



000
FTUS41 KCTP 161540 AAB
TAFAOO
TAF AMD
KAOO 161540Z 1616/1712 34011G17KT P6SM SCT250
     FM162100 06005KT P6SM BKN250
     FM170900 08006KT P6SM BKN200=



000
FTUS41 KCTP 161540 AAB
TAFUNV
TAF AMD
KUNV 161540Z 1616/1712 32008G15KT P6SM SCT250
     FM162200 08005KT P6SM BKN250
     FM170900 10006KT P6SM BKN200=



000
FTUS41 KCTP 161540 AAA
TAFJST
TAF AMD
KJST 161540Z 1616/1712 33008G14KT P6SM SCT250
     FM162100 08006KT P6SM BKN250
     FM170200 13005KT P6SM BKN250
     FM170900 13008KT P6SM BKN200=



000
FTUS41 KCTP 161540 AAB
TAFBFD
TAF AMD
KBFD 161540Z 1616/1712 35007G13KT P6SM SCT030 SCT250
     FM161800 07004KT P6SM SCT030 SCT250
     FM162300 VRB03KT P6SM BKN250
     FM170800 12006KT P6SM BKN180=



000
FTUS41 KCTP 161540 AAA
TAFIPT
TAF AMD
KIPT 161540Z 1616/1712 32009G15KT P6SM SKC
     FM162300 04006KT P6SM BKN250
     FM170400 09004KT P6SM BKN220=



000
FTUS41 KCTP 161409 AAA
TAFBFD
TAF AMD
KBFD 161409Z 1614/1712 35008G15KT P6SM SKC
     FM161800 VRB05KT P6SM SCT250
     FM162100 13007KT P6SM BKN250=



000
FTUS41 KCTP 161408 AAA
TAFAOO
TAF AMD
KAOO 161408Z 1614/1712 34008G15KT P6SM SKC
     FM162100 10007KT P6SM BKN250=



000
FTUS41 KCTP 161407 AAA
TAFUNV
TAF AMD
KUNV 161407Z 1614/1712 29006KT P6SM FEW250
     FM161500 32008G15KT P6SM SCT250
     FM162200 10007KT P6SM BKN250=



000
FTUS41 KCTP 161135
TAFJST
TAF
KJST 161135Z 1612/1712 33008G15KT P6SM SKC
     FM162000 12007KT P6SM BKN250=



000
FTUS41 KCTP 161135
TAFMDT
TAF
KMDT 161135Z 1612/1712 33012G22KT P6SM SKC
     FM162200 09007KT P6SM BKN250=



000
FTUS41 KCTP 161135
TAFBFD
TAF
KBFD 161135Z 1612/1712 33008G15KT P6SM SKC
     FM162100 13007KT P6SM BKN250=



000
FTUS41 KCTP 161135
TAFUNV
TAF
KUNV 161135Z 1612/1712 32008G15KT P6SM SKC
     FM162200 10007KT P6SM BKN250=



000
FTUS41 KCTP 161135
TAFIPT
TAF
KIPT 161135Z 1612/1712 32008G15KT P6SM SKC
     FM162300 07007KT P6SM BKN250=



000
FTUS41 KCTP 161135
TAFAOO
TAF
KAOO 161135Z 1612/1712 33008G15KT P6SM SKC
     FM162100 10007KT P6SM BKN250=



000
FTUS41 KCTP 160931 AAA
TAFJST
TAF AMD
KJST 160931Z 1610/1706 32012G22KT P6SM SCT025
     FM161300 34010KT P6SM SKC
     FM162000 12007KT P6SM BKN250=



000
FTUS41 KCTP 160931 AAA
TAFMDT
TAF AMD
KMDT 160931Z 1610/1706 33018G28KT P6SM SCT035
     FM161600 35010KT P6SM SKC
     FM162200 09007KT P6SM BKN250=



000
FTUS41 KCTP 160931 AAA
TAFBFD
TAF AMD
KBFD 160931Z 1610/1706 33008G15KT P6SM SCT025
     FM161300 34010KT P6SM SKC
     FM162100 13007KT P6SM BKN250=



000
FTUS41 KCTP 160931 AAA
TAFIPT
TAF AMD
KIPT 160931Z 1610/1706 32012G24KT P6SM SKC
     FM161500 34010KT P6SM SKC
     FM162300 07007KT P6SM BKN250=



000
FTUS41 KCTP 160931 AAA
TAFUNV
TAF AMD
KUNV 160931Z 1610/1706 33008G15KT P6SM SCT030
     FM161400 34010KT P6SM SKC
     FM162200 10007KT P6SM BKN250=



000
FTUS41 KCTP 160931 AAA
TAFAOO
TAF AMD
KAOO 160931Z 1610/1706 33015G25KT P6SM SCT035
     FM161400 34010KT P6SM SKC
     FM162100 10007KT P6SM BKN250=



000
FTUS41 KCTP 160539
TAFJST
TAF
KJST 160539Z 1606/1706 30018G28KT P6SM -SHSN BKN015
     FM161300 34010KT P6SM SCT020
     FM162000 12007KT P6SM BKN250=



000
FTUS41 KCTP 160539
TAFUNV
TAF
KUNV 160539Z 1606/1706 32015G25KT P6SM BKN030
     FM161400 34010KT P6SM SKC
     FM162200 10007KT P6SM BKN250=



000
FTUS41 KCTP 160539
TAFAOO
TAF
KAOO 160539Z 1606/1706 33015G26KT P6SM BKN035
     FM161400 34010KT P6SM SKC
     FM162100 10007KT P6SM BKN250=



000
FTUS41 KCTP 160539
TAFMDT
TAF
KMDT 160539Z 1606/1706 33018G28KT P6SM BKN035
     FM161600 35010KT P6SM SKC
     FM162200 09007KT P6SM BKN250=



000
FTUS41 KCTP 160539
TAFIPT
TAF
KIPT 160539Z 1606/1706 32015G25KT P6SM BKN035
     FM161500 34010KT P6SM SKC
     FM162300 07007KT P6SM BKN250=



000
FTUS41 KCTP 160539
TAFBFD
TAF
KBFD 160539Z 1606/1706 33016G26KT P6SM BKN025
     FM161300 34010KT P6SM SCT020
     FM162100 13007KT P6SM BKN250=



000
FTUS41 KCTP 160438 AAE
TAFBFD
TAF AMD
KBFD 160438Z 1605/1624 32016G26KT 5SM -SHSN BR FEW021 OVC040
     FM160700 32010G20KT P6SM VCSH BKN040
     FM161300 32006KT P6SM SCT040
     FM161800 31007KT P6SM SKC=



000
FTUS41 KCTP 160324 AAB
TAFIPT
TAF AMD
KIPT 160324Z 1603/1624 30012G23KT P6SM SCT050
     FM160800 32012KT P6SM SCT030
     FM161500 33007KT P6SM SCT030=



000
FTUS41 KCTP 160324 AAA
TAFUNV
TAF AMD
KUNV 160324Z 1603/1624 32012G23KT P6SM SCT025
     FM160800 32012KT P6SM SCT030
     FM161500 33007KT P6SM SCT030=



000
FTUS41 KCTP 160324 AAD
TAFBFD
TAF AMD
KBFD 160324Z 1603/1624 31016G20KT P6SM -SN FEW021 OVC040
     FM160600 32010G20KT P6SM VCSH BKN040
     FM161300 32006KT P6SM SCT040
     FM161800 31007KT P6SM SKC=



000
FTUS41 KCTP 160324 AAA
TAFAOO
TAF AMD
KAOO 160324Z 1603/1624 33014G31KT P6SM SCT030 BKN040 OVC050
     FM160800 32012KT P6SM SCT030
     FM161500 33007KT P6SM SCT030=



000
FTUS41 KCTP 160324 AAA
TAFMDT
TAF AMD
KMDT 160324Z 1603/1624 33018G28KT P6SM SCT045 BKN120 BKN200
     FM160900 34013KT P6SM FEW030
     FM161600 35010KT P6SM SKC=



000
FTUS41 KCTP 160254 AAA
TAFJST
TAF AMD
KJST 160254Z 1603/1624 30020G33KT P6SM -RASN FEW026 OVC045
     FM160600 32010G20KT P6SM VCSH BKN045
     FM161500 32007KT P6SM SCT020=



000
FTUS41 KCTP 160157 AAC
TAFBFD
TAF AMD
KBFD 160157Z 1602/1624 30010G18KT P6SM -SN SCT020 SCT040 BKN050
     FM161300 32006KT P6SM SCT040
     FM161800 31007KT P6SM SKC=



000
FTUS41 KCTP 160103 AAB
TAFBFD
TAF AMD
KBFD 160103Z 1601/1624 30016G23KT 4SM -SN BR BKN022
      TEMPO 1601/1603 1/2SM SN SCT008 BKN022 BKN029
     FM161300 32006KT P6SM SCT040
     FM161800 31007KT P6SM SKC=



000
FTUS41 KCTP 160011 AAA
TAFIPT
TAF AMD
KIPT 160011Z 1600/1624 27010KT P6SM FEW050 BKN090 OVC110
     FM160300 31015G25KT P6SM SCT050
     FM160800 32012KT P6SM SCT030
     FM161500 33007KT P6SM SCT030=



000
FTUS41 KCTP 160010 AAA
TAFBFD
TAF AMD
KBFD 160010Z 1600/1624 30015G24KT P6SM FEW021 BKN040
     FM161300 32006KT P6SM SCT040
     FM161800 31007KT P6SM SKC=



000
FTUS41 KCTP 152340
TAFBFD
TAF
KBFD 152340Z 1600/1624 29015G25KT 5SM -SN FEW023 OVC035
     FM160300 31008G15KT P6SM SCT015
     FM161500 32006KT P6SM SCT020
     FM161800 31007KT P6SM SKC=



000
FTUS41 KCTP 152340
TAFAOO
TAF
KAOO 152340Z 1600/1624 32020G27KT P6SM -SN FEW018 BKN026 OVC040
     FM160200 32014G22KT P6SM SCT028
     FM160800 32012KT P6SM SCT030
     FM161500 33007KT P6SM SCT030=



000
FTUS41 KCTP 152340
TAFUNV
TAF
KUNV 152340Z 1600/1624 31011KT 4SM -SN BR BKN012 OVC020
     FM160200 32014G22KT P6SM SCT025
     FM160800 32012KT P6SM SCT030
     FM161500 33007KT P6SM SCT030=



000
FTUS41 KCTP 152340
TAFJST
TAF
KJST 152340Z 1600/1624 31019G27KT 4SM -SN BR BKN015
      TEMPO 1600/1603 2SM -SN BR SCT012 BKN017 OVC029
     FM160300 31011G17KT P6SM SCT015
     FM161500 32007KT P6SM SCT020=



000
FTUS41 KCTP 152340
TAFMDT
TAF
KMDT 152340Z 1600/1624 30016G21KT 5SM RA BKN015 BKN025
     FM160200 32016G26KT P6SM SCT030
     FM160900 34013KT P6SM FEW030
     FM161600 35010KT P6SM SKC=



000
FTUS41 KCTP 152340
TAFIPT
TAF
KIPT 152340Z 1600/1624 28010KT 4SM HZ BKN030 OVC050
     FM160300 31015G25KT P6SM SCT030
     FM160800 32012KT P6SM SCT030
     FM161500 33007KT P6SM SCT030=



000
FTUS41 KCTP 152114 AAA
TAFAOO
TAF AMD
KAOO 152114Z 1521/1618 30018G25KT P6SM SCT027 BKN035 OVC090
      TEMPO 1521/1522 4SM -SHSN OVC018
     FM160200 32014G22KT P6SM SCT028
     FM160800 32012KT P6SM SCT030
     FM161500 33007KT P6SM SCT030=



000
FTUS41 KCTP 152114 AAC
TAFIPT
TAF AMD
KIPT 152114Z 1521/1618 31008KT P6SM -RA FEW025 BKN040 OVC080
     FM152200 32016G26KT P6SM -SHSN BKN023
     FM160300 31015G25KT P6SM SCT030
     FM160800 32012KT P6SM SCT030
     FM161500 33007KT P6SM SCT030=



000
FTUS41 KCTP 152114 AAB
TAFBFD
TAF AMD
KBFD 152114Z 1521/1618 32016G23KT P6SM OVC016
      TEMPO 1521/1522 2SM -SN BR BKN009 OVC015
     FM152300 31015G25KT P6SM -SHSN BKN015
     FM160700 31008G15KT P6SM SCT015
     FM161500 32006KT P6SM SCT020=



000
FTUS41 KCTP 152114 AAB
TAFMDT
TAF AMD
KMDT 152114Z 1521/1618 32019G27KT P6SM -RA SCT025 BKN060 OVC080
      TEMPO 1521/1522 4SM RA BR BKN020 OVC030
     FM152300 32016G29KT 5SM -SN BKN023 OVC045
     FM160200 32016G26KT P6SM SCT030
     FM160900 34013KT P6SM FEW030
     FM161600 35010KT P6SM SKC=



000
FTUS41 KCTP 152114 AAC
TAFUNV
TAF AMD
KUNV 152114Z 1521/1618 32012G19KT P6SM -SN OVC025
      TEMPO 1521/1523 3SM -SHSN
     FM160200 32014G22KT P6SM SCT025
     FM160800 32012KT P6SM SCT030
     FM161500 33007KT P6SM SCT030=



000
FTUS41 KCTP 152114 AAB
TAFJST
TAF AMD
KJST 152114Z 1521/1618 30018G25KT 1/2SM SN FZFG BKN006 OVC010
      TEMPO 1521/1522 1SM -SN BR OVC007
     FM152200 32016G26KT P6SM -SHSN BKN015
     FM160700 31011G17KT P6SM SCT015
     FM161500 32007KT P6SM SCT020=



000
FTUS41 KCTP 151947 AAB
TAFIPT
TAF AMD
KIPT 151947Z 1520/1618 30012G22KT 5SM -RASN BR BKN025 OVC045
     FM152300 32016G26KT P6SM -SHSN BKN023
     FM160300 31015G25KT P6SM SCT030
     FM160800 32012KT P6SM SCT030
     FM161500 33007KT P6SM SCT030=



000
FTUS41 KCTP 151946 AAB
TAFUNV
TAF AMD
KUNV 151946Z 1520/1618 29011G20KT P6SM VCSH OVC020
      TEMPO 1520/1523 3SM -SHSN
     FM160200 32014G22KT P6SM SCT025
     FM160800 32012KT P6SM SCT030
     FM161500 33007KT P6SM SCT030=



000
FTUS41 KCTP 151945 AAA
TAFJST
TAF AMD
KJST 151945Z 1520/1618 29012G22KT 6SM -SN BR SCT005 OVC010
      TEMPO 1520/1522 1SM -SN BR OVC007
     FM152200 32016G26KT P6SM -SHSN BKN015
     FM160700 31011G17KT P6SM SCT015
     FM161500 32007KT P6SM SCT020=



000
FTUS41 KCTP 151839 AAA
TAFMDT
TAF AMD
KMDT 151839Z 1519/1618 30021G27KT P6SM -RA SCT025 OVC040
      TEMPO 1519/1522 4SM RA BR BKN020 OVC030
     FM152300 32016G29KT 5SM -SN BKN023 OVC045
     FM160200 32016G26KT P6SM SCT030
     FM160900 34013KT P6SM FEW030
     FM161600 35010KT P6SM SKC=



000
FTUS41 KCTP 151838 AAA
TAFIPT
TAF AMD
KIPT 151838Z 1519/1618 30013G22KT 5SM -RA BR BKN028 OVC045
     FM151900 30013G22KT 4SM -RASN BKN018 OVC035
     FM152000 31015G25KT 3SM -SN BR BKN017 OVC030
     FM152300 32016G26KT P6SM -SHSN BKN023
     FM160300 31015G25KT P6SM SCT030
     FM160800 32012KT P6SM SCT030
     FM161500 33007KT P6SM SCT030=



000
FTUS41 KCTP 151837 AAA
TAFUNV
TAF AMD
KUNV 151837Z 1519/1618 29011G20KT P6SM VCSH OVC017
     FM151915 30013G24KT 6SM -RASN BR BKN015 OVC025
      TEMPO 1521/1523 3SM -SHSN
     FM160200 32014G22KT P6SM SCT025
     FM160800 32012KT P6SM SCT030
     FM161500 33007KT P6SM SCT030=



000
FTUS41 KCTP 151835 AAA
TAFBFD
TAF AMD
KBFD 151835Z 1519/1618 28015G24KT P6SM -SN BKN016 OVC035
     FM151920 29015G25KT 4SM -SN OVC015
      TEMPO 1520/1522 2SM -SN BR BKN009 OVC015
     FM152300 31015G25KT P6SM -SHSN BKN015
     FM160700 31008G15KT P6SM SCT015
     FM161500 32006KT P6SM SCT020=



000
FTUS41 KCTP 151739
TAFMDT
TAF
KMDT 151739Z 1518/1618 30021G29KT P6SM -RA SCT025 OVC040
      TEMPO 1518/1522 4SM RA BR
     FM152300 32016G29KT 5SM -SN BKN023 OVC045
     FM160200 32016G26KT P6SM SCT030
     FM160900 34013KT P6SM FEW030
     FM161600 35010KT P6SM SKC=



000
FTUS41 KCTP 151739
TAFAOO
TAF
KAOO 151739Z 1518/1618 31015G25KT 6SM -RASN BR BKN020 OVC060
      TEMPO 1519/1522 4SM -SHSN OVC018
     FM160200 32014G22KT P6SM SCT028
     FM160800 32012KT P6SM SCT030
     FM161500 33007KT P6SM SCT030=



000
FTUS41 KCTP 151739
TAFJST
TAF
KJST 151739Z 1518/1618 29012G22KT 1SM -SN BR OVC004
      TEMPO 1518/1522 31014G25KT 5SM -SN BR OVC007
     FM152200 32016G26KT P6SM -SHSN BKN015
     FM160700 31011G17KT P6SM SCT015
     FM161500 32007KT P6SM SCT020=



000
FTUS41 KCTP 151739
TAFBFD
TAF
KBFD 151739Z 1518/1618 29015G24KT 5SM -SN BR BKN016 OVC035
      TEMPO 1518/1522 2SM -SN BR BKN009 OVC020
     FM152300 31015G25KT P6SM -SHSN BKN015
     FM160700 31008G15KT P6SM SCT015
     FM161500 32006KT P6SM SCT020=



000
FTUS41 KCTP 151739
TAFUNV
TAF
KUNV 151739Z 1518/1618 29013G22KT P6SM -RAPL BKN015 OVC027
     FM151830 31013G24KT 6SM -RASN BR BKN015 OVC025
      TEMPO 1519/1522 3SM -SHSN
     FM160200 32014G22KT P6SM SCT025
     FM160800 32012KT P6SM SCT030
     FM161500 33007KT P6SM SCT030=



000
FTUS41 KCTP 151739
TAFIPT
TAF
KIPT 151739Z 1518/1618 30013G22KT 5SM -RA BR BKN018 OVC045
     FM151900 30013G22KT 4SM -RASN BKN018 OVC035
     FM152000 31015G25KT 3SM -SN BR BKN017 OVC030
     FM152300 32016G26KT P6SM -SHSN BKN023
     FM160300 31015G25KT P6SM SCT030
     FM160800 32012KT P6SM SCT030
     FM161500 33007KT P6SM SCT030=



000
FTUS41 KCTP 151716 AAD
TAFMDT
TAF AMD
KMDT 151716Z 1517/1612 29020G34KT 1 1/2SM +RA BR BKN015 OVC035
     FM151730 30015G25KT 5SM -RA BR OVC025
      TEMPO 1518/1520 3SM RA BR
     FM160300 32016G26KT P6SM SCT030=



000
FTUS41 KCTP 151715 AAF
TAFIPT
TAF AMD
KIPT 151715Z 1517/1612 30013G22KT 6SM -RA BR BKN018 OVC070
     FM152100 31015G25KT 5SM -RASN BR BKN028 OVC050
     FM160300 31015G25KT P6SM SCT030=



000
FTUS41 KCTP 151713 AAD
TAFUNV
TAF AMD
KUNV 151713Z 1517/1612 29013G22KT P6SM -RA BKN020 OVC035
     FM151830 31013G24KT 6SM -RASN BR BKN018 OVC030
     FM160200 32015G25KT P6SM SCT025=



000
FTUS41 KCTP 151704 AAD
TAFAOO
TAF AMD
KAOO 151704Z 1517/1612 30014G22KT P6SM -RA BKN045 OVC070
     FM151800 31015G25KT 6SM -RASN BR BKN035 OVC060
      TEMPO 1519/1522 4SM -SHSN OVC028
     FM160200 32015G25KT P6SM SCT028=



000
FTUS41 KCTP 151702 AAD
TAFJST
TAF AMD
KJST 151702Z 1517/1612 29012G22KT 1SM -SN BR OVC004
      TEMPO 1518/1522 31014G25KT 3SM -SN BR OVC007
     FM152200 32016G26KT P6SM -SHSN BKN015
     FM160700 31008G15KT P6SM SCT015=



000
FTUS41 KCTP 151700 AAE
TAFBFD
TAF AMD
KBFD 151700Z 1517/1612 29015G24KT 5SM -SN BR BKN016 OVC035
      TEMPO 1518/1522 2SM -SN BR BKN009 OVC020
     FM152300 31015G25KT P6SM -SHSN BKN015
     FM160700 31008G15KT P6SM SCT015=



    US Dept of Commerce
    National Oceanic and Atmospheric Administration
    National Weather Service
    1325 East West Highway
    Silver Spring, MD 20910
    Page Author: NWS Internet Services Team
Disclaimer
Information Quality
Credits
Glossary
Privacy Policy
Freedom of Information Act (FOIA)
About Us
Career Opportunities